createdAt,value
2022-10-19T00:01:21.435Z,24.60
2022-10-19T00:03:52.893Z,22.50
2022-10-19T00:06:26.968Z,23.35
2022-10-19T00:09:06.475Z,15.77
2022-10-19T00:11:44.292Z,18.65
2022-10-19T00:14:22.375Z,19.55
2022-10-19T00:17:08.723Z,18.55
2022-10-19T00:19:55.812Z,19.65
2022-10-19T00:22:37.162Z,16.10
2022-10-19T00:25:20.587Z,22.38
2022-10-19T00:27:55.986Z,15.98
2022-10-19T00:30:32.967Z,17.08
2022-10-19T00:33:29.126Z,16.27
2022-10-19T00:35:58.544Z,13.43
2022-10-19T00:38:33.441Z,13.18
2022-10-19T00:41:12.186Z,11.65
2022-10-19T00:44:21.655Z,13.00
2022-10-19T00:46:57.775Z,13.77
2022-10-19T00:49:39.789Z,13.13
2022-10-19T00:52:41.141Z,14.23
2022-10-19T00:55:43.563Z,12.13
2022-10-19T00:58:30.614Z,13.38
2022-10-19T01:01:03.300Z,11.10
2022-10-19T01:03:34.679Z,9.93
2022-10-19T01:06:07.628Z,15.40
2022-10-19T01:08:39.754Z,10.27
2022-10-19T01:11:28.003Z,10.90
2022-10-19T01:14:14.441Z,11.38
2022-10-19T01:17:26.211Z,9.65
2022-10-19T01:20:11.323Z,9.10
2022-10-19T01:22:43.450Z,11.07
2022-10-19T01:25:47.657Z,10.85
2022-10-19T01:28:38.640Z,14.65
2022-10-19T01:31:31.842Z,14.10
2022-10-19T01:34:07.483Z,9.23
2022-10-19T01:36:44.151Z,9.82
2022-10-19T01:39:14.396Z,12.63
2022-10-19T01:42:15.721Z,8.90
2022-10-19T01:44:57.062Z,12.60
2022-10-19T01:47:31.374Z,11.88
2022-10-19T01:50:48.500Z,13.00
2022-10-19T01:53:20.000Z,12.98
2022-10-19T01:55:50.179Z,17.77
2022-10-19T01:58:21.761Z,8.65
2022-10-19T02:00:52.452Z,10.60
2022-10-19T02:03:19.782Z,12.73
2022-10-19T02:05:49.419Z,16.67
2022-10-19T02:08:23.773Z,15.07
2022-10-19T02:10:51.166Z,12.15
2022-10-19T02:13:20.224Z,14.35
2022-10-19T02:15:50.725Z,12.80
2022-10-19T02:18:24.008Z,17.83
2022-10-19T02:20:50.464Z,12.65
2022-10-19T02:23:21.755Z,14.15
2022-10-19T02:25:48.456Z,11.43
2022-10-19T02:28:15.080Z,11.18
2022-10-19T02:30:42.389Z,13.25
2022-10-19T02:33:12.619Z,12.90
2022-10-19T02:35:42.108Z,11.73
2022-10-19T02:38:11.502Z,11.40
2022-10-19T02:40:40.990Z,10.23
2022-10-19T02:43:13.939Z,8.77
2022-10-19T02:45:48.261Z,9.80
2022-10-19T02:48:20.119Z,8.23
2022-10-19T02:50:49.943Z,8.35
2022-10-19T02:53:16.715Z,7.10
2022-10-19T02:55:43.815Z,7.82
2022-10-19T02:58:10.233Z,7.78
2022-10-19T03:00:36.589Z,8.63
2022-10-19T03:03:03.113Z,7.57
2022-10-19T03:05:29.858Z,8.10
2022-10-19T03:07:56.404Z,10.65
2022-10-19T03:10:22.871Z,9.10
2022-10-19T03:12:49.257Z,7.45
2022-10-19T03:15:19.301Z,7.22
2022-10-19T03:17:45.679Z,7.18
2022-10-19T03:20:12.286Z,7.65
2022-10-19T03:22:38.663Z,8.48
2022-10-19T03:25:05.494Z,7.35
2022-10-19T03:27:32.135Z,11.77
2022-10-19T03:29:58.821Z,10.25
2022-10-19T03:32:25.557Z,8.55
2022-10-19T03:34:51.971Z,8.48
2022-10-19T03:37:18.403Z,8.10
2022-10-19T03:39:44.928Z,10.25
2022-10-19T03:42:11.332Z,10.70
2022-10-19T03:44:38.948Z,9.45
2022-10-19T03:47:05.386Z,11.57
2022-10-19T03:49:32.968Z,10.65
2022-10-19T03:52:01.082Z,8.05
2022-10-19T03:54:27.702Z,9.85
2022-10-19T03:56:54.083Z,9.52
2022-10-19T03:59:20.556Z,9.73
2022-10-19T04:01:47.460Z,8.95
2022-10-19T04:04:17.114Z,12.23
2022-10-19T04:06:45.673Z,14.15
2022-10-19T04:09:14.861Z,8.82
2022-10-19T04:16:35.959Z,10.57
2022-10-19T04:19:02.632Z,9.75
2022-10-19T04:21:34.805Z,8.38
2022-10-19T04:24:13.897Z,9.80
2022-10-19T04:26:48.784Z,9.10
2022-10-19T04:29:17.323Z,12.90
2022-10-19T04:31:43.839Z,9.45
2022-10-19T04:37:03.101Z,12.10
2022-10-19T04:39:29.572Z,10.95
2022-10-19T04:41:55.979Z,9.40
2022-10-19T04:46:53.779Z,9.98
2022-10-19T04:49:20.464Z,9.88
2022-10-19T04:51:46.913Z,8.20
2022-10-19T04:54:13.556Z,9.82
2022-10-19T04:56:42.847Z,12.45
2022-10-19T04:59:09.921Z,10.68
2022-10-19T05:01:37.226Z,11.40
2022-10-19T05:04:03.688Z,9.95
2022-10-19T05:06:31.476Z,12.93
2022-10-19T05:08:58.839Z,10.40
2022-10-19T05:11:25.688Z,8.23
2022-10-19T05:13:52.133Z,14.35
2022-10-19T05:16:21.109Z,10.73
2022-10-19T05:18:53.328Z,16.08
2022-10-19T05:21:21.827Z,9.32
2022-10-19T05:23:52.195Z,9.88
2022-10-19T05:26:20.516Z,12.93
2022-10-19T05:28:56.291Z,15.90
2022-10-19T05:31:25.229Z,15.77
2022-10-19T05:33:51.639Z,13.50
2022-10-19T05:36:26.117Z,18.38
2022-10-19T05:38:54.060Z,17.23
2022-10-19T05:41:21.475Z,21.73
2022-10-19T05:43:53.553Z,18.75
2022-10-19T05:46:19.923Z,8.95
2022-10-19T05:48:47.285Z,13.98
2022-10-19T05:51:16.421Z,12.55
2022-10-19T05:56:14.535Z,7.88
2022-10-19T05:58:44.172Z,9.38
2022-10-19T06:01:10.644Z,13.02
2022-10-19T06:03:37.092Z,11.25
2022-10-19T06:06:05.510Z,7.63
2022-10-19T06:08:32.120Z,6.40
2022-10-19T06:11:13.366Z,6.75
2022-10-19T06:13:44.622Z,12.90
2022-10-19T06:16:13.216Z,18.90
2022-10-19T06:18:49.403Z,12.07
2022-10-19T06:21:17.876Z,10.57
2022-10-19T06:23:45.036Z,8.05
2022-10-19T06:26:14.231Z,7.50
2022-10-19T06:28:42.530Z,7.95
2022-10-19T06:31:10.027Z,7.22
2022-10-19T06:33:37.230Z,9.18
2022-10-19T06:36:13.958Z,8.32
2022-10-19T06:38:44.135Z,8.55
2022-10-19T06:41:12.022Z,10.43
2022-10-19T06:43:40.880Z,28.38
2022-10-19T06:46:14.948Z,11.25
2022-10-19T06:48:44.655Z,10.88
2022-10-19T06:51:13.500Z,12.02
2022-10-19T06:53:39.870Z,21.13
2022-10-19T06:56:06.923Z,26.88
2022-10-19T06:58:37.475Z,24.33
2022-10-19T07:01:07.717Z,14.43
2022-10-19T07:03:34.862Z,12.52
2022-10-19T07:06:04.368Z,10.10
2022-10-19T07:08:35.611Z,12.27
2022-10-19T07:11:09.892Z,8.68
2022-10-19T07:13:36.728Z,9.02
2022-10-19T07:16:16.165Z,7.35
2022-10-19T07:18:47.122Z,7.68
2022-10-19T07:21:15.822Z,6.97
2022-10-19T07:23:47.246Z,7.00
2022-10-19T07:26:23.718Z,12.55
2022-10-19T07:28:51.063Z,8.32
2022-10-19T07:31:20.572Z,7.30
2022-10-19T07:33:51.340Z,7.65
2022-10-19T07:36:18.065Z,6.45
2022-10-19T07:38:44.572Z,6.40
2022-10-19T07:41:14.327Z,6.85
2022-10-19T07:43:43.864Z,7.97
2022-10-19T07:46:22.974Z,6.40
2022-10-19T07:48:49.861Z,6.57
2022-10-19T07:51:18.150Z,7.65
2022-10-19T07:54:03.933Z,7.10
2022-10-19T07:56:31.321Z,7.38
2022-10-19T07:58:59.713Z,7.07
2022-10-19T08:01:34.170Z,8.27
2022-10-19T08:06:47.869Z,7.35
2022-10-19T08:09:33.445Z,7.40
2022-10-19T08:12:01.009Z,7.35
2022-10-19T08:14:27.787Z,8.27
2022-10-19T08:16:54.186Z,9.07
2022-10-19T08:19:22.448Z,8.10
2022-10-19T08:21:49.057Z,8.73
2022-10-19T08:24:16.939Z,8.93
2022-10-19T08:26:43.661Z,9.65
2022-10-19T08:29:13.593Z,8.68
2022-10-19T08:31:41.250Z,14.18
2022-10-19T08:34:08.286Z,9.15
2022-10-19T08:36:35.541Z,8.57
2022-10-19T08:39:04.629Z,9.90
2022-10-19T08:41:40.127Z,9.02
2022-10-19T08:44:24.517Z,8.48
2022-10-19T08:47:00.446Z,10.52
2022-10-19T08:49:31.615Z,10.07
2022-10-19T08:52:01.810Z,10.30
2022-10-19T08:54:39.474Z,9.45
2022-10-19T08:57:25.675Z,8.75
2022-10-19T09:00:03.009Z,10.20
2022-10-19T09:02:54.275Z,9.48
2022-10-19T09:05:32.261Z,8.65
2022-10-19T09:07:59.256Z,8.27
2022-10-19T09:10:31.199Z,7.97
2022-10-19T09:13:09.832Z,9.68
2022-10-19T09:15:42.665Z,9.32
2022-10-19T09:18:20.842Z,9.50
2022-10-19T09:20:50.091Z,9.05
2022-10-19T09:23:41.945Z,9.63
2022-10-19T09:26:19.318Z,9.05
2022-10-19T09:29:00.861Z,8.85
2022-10-19T09:31:40.495Z,9.20
2022-10-19T09:34:29.149Z,8.90
2022-10-19T09:36:57.652Z,8.77
2022-10-19T09:39:28.676Z,8.82
2022-10-19T09:42:13.440Z,9.55
2022-10-19T09:44:40.159Z,9.25
2022-10-19T09:47:18.347Z,9.93
2022-10-19T09:49:47.632Z,9.35
2022-10-19T09:52:39.195Z,9.88
2022-10-19T09:55:07.092Z,8.85
2022-10-19T09:57:41.354Z,9.60
2022-10-19T10:00:30.793Z,9.95
2022-10-19T10:02:57.389Z,8.82
2022-10-19T10:05:34.397Z,9.52
2022-10-19T10:08:01.344Z,9.55
2022-10-19T10:10:32.353Z,9.52
2022-10-19T10:12:59.810Z,8.70
2022-10-19T10:15:41.204Z,7.93
2022-10-19T10:18:13.674Z,8.13
2022-10-19T10:21:05.972Z,7.72
2022-10-19T10:23:36.275Z,8.52
2022-10-19T10:26:04.952Z,7.47
2022-10-19T10:31:07.669Z,7.38
2022-10-19T10:33:44.714Z,7.20
2022-10-19T10:36:12.702Z,6.47
2022-10-19T10:38:47.131Z,6.18
2022-10-19T10:41:20.073Z,6.60
2022-10-19T10:44:06.614Z,5.65
2022-10-19T10:46:36.971Z,6.03
2022-10-19T10:49:07.383Z,5.78
2022-10-19T10:51:50.621Z,5.40
2022-10-19T10:54:21.739Z,5.15
2022-10-19T10:57:06.658Z,5.63
2022-10-19T10:59:45.762Z,4.88
2022-10-19T11:02:15.221Z,4.70
2022-10-19T11:04:52.162Z,5.20
2022-10-19T11:07:23.546Z,4.85
2022-10-19T11:10:06.800Z,5.28
2022-10-19T11:12:39.850Z,4.68
2022-10-19T11:15:16.310Z,4.90
2022-10-19T11:17:55.750Z,4.65
2022-10-19T11:20:26.757Z,4.20
2022-10-19T11:23:13.702Z,4.22
2022-10-19T11:26:26.155Z,3.38
2022-10-19T11:29:11.324Z,3.50
2022-10-19T11:31:47.074Z,4.75
2022-10-19T11:34:47.223Z,4.30
2022-10-19T11:38:18.229Z,4.50
2022-10-19T11:41:16.890Z,4.05
2022-10-19T11:44:25.048Z,4.03
2022-10-19T11:47:29.878Z,3.95
2022-10-19T11:50:15.590Z,4.10
2022-10-19T11:53:09.339Z,4.78
2022-10-19T11:55:45.875Z,3.80
2022-10-19T11:58:38.710Z,6.70
2022-10-19T12:01:28.410Z,3.55
2022-10-19T12:04:03.882Z,3.92
2022-10-19T12:06:58.189Z,4.65
2022-10-19T12:09:44.743Z,5.72
2022-10-19T12:12:45.649Z,5.50
2022-10-19T12:15:11.941Z,12.13
2022-10-19T12:17:41.430Z,4.72
2022-10-19T12:20:34.641Z,3.55
2022-10-19T12:23:13.255Z,3.35
2022-10-19T12:25:42.941Z,3.50
2022-10-19T12:28:18.722Z,3.97
2022-10-19T12:30:45.269Z,5.13
2022-10-19T12:33:28.431Z,3.25
2022-10-19T12:36:33.162Z,3.47
2022-10-19T12:39:03.861Z,3.28
2022-10-19T12:41:39.312Z,2.92
2022-10-19T12:44:27.486Z,3.10
2022-10-19T12:49:30.217Z,3.20
2022-10-19T12:52:01.575Z,3.83
2022-10-19T12:54:37.333Z,3.15
2022-10-19T12:57:22.848Z,3.05
2022-10-19T12:59:59.896Z,3.30
2022-10-19T13:05:05.943Z,3.42
2022-10-19T13:07:35.731Z,3.00
2022-10-19T13:10:07.104Z,4.35
2022-10-19T13:12:46.079Z,2.40
2022-10-19T13:15:49.616Z,2.55
2022-10-19T13:18:54.663Z,5.07
2022-10-19T13:21:53.509Z,2.58
2022-10-19T13:24:25.880Z,2.47
2022-10-19T13:27:25.488Z,2.85
2022-10-19T13:29:52.029Z,4.05
2022-10-19T13:32:43.295Z,2.72
2022-10-19T13:35:33.273Z,2.97
2022-10-19T13:38:08.844Z,2.83
2022-10-19T13:41:10.565Z,1.85
2022-10-19T13:44:01.663Z,2.50
2022-10-19T13:46:30.971Z,2.25
2022-10-19T13:49:22.291Z,3.15
2022-10-19T13:52:02.298Z,2.03
2022-10-19T13:54:53.369Z,1.95
2022-10-19T13:57:41.991Z,2.42
2022-10-19T14:00:14.575Z,2.45
2022-10-19T14:02:47.036Z,2.75
2022-10-19T14:05:42.951Z,2.72
2022-10-19T14:08:11.986Z,2.60
2022-10-19T14:13:25.328Z,3.67
2022-10-19T14:15:54.940Z,2.80
2022-10-19T14:18:56.868Z,2.53
2022-10-19T14:21:32.011Z,3.38
2022-10-19T14:23:59.264Z,3.47
2022-10-19T14:26:32.307Z,6.40
2022-10-19T14:28:59.811Z,3.75
2022-10-19T14:31:35.196Z,2.60
2022-10-19T14:39:29.748Z,2.90
2022-10-19T14:41:57.155Z,3.40
2022-10-19T14:44:43.128Z,3.00
2022-10-19T14:47:21.493Z,3.38
2022-10-19T14:49:48.325Z,3.22
2022-10-19T14:52:31.003Z,2.83
2022-10-19T14:55:01.418Z,3.00
2022-10-19T14:57:34.099Z,3.08
2022-10-19T15:00:16.869Z,3.38
2022-10-19T15:02:47.024Z,3.38
2022-10-19T15:05:23.716Z,3.42
2022-10-19T15:07:51.049Z,3.78
2022-10-19T15:10:29.438Z,3.33
2022-10-19T15:13:04.714Z,3.60
2022-10-19T15:15:33.468Z,3.75
2022-10-19T15:17:59.852Z,4.97
2022-10-19T15:20:28.177Z,4.47
2022-10-19T15:22:55.942Z,4.47
2022-10-19T15:25:36.782Z,4.15
2022-10-19T15:28:41.636Z,5.75
2022-10-19T15:31:16.152Z,5.47
2022-10-19T15:33:52.267Z,6.22
2022-10-19T15:36:20.244Z,5.93
2022-10-19T15:39:11.368Z,5.75
2022-10-19T15:41:44.671Z,5.00
2022-10-19T15:44:40.633Z,5.25
2022-10-19T15:47:16.161Z,5.55
2022-10-19T15:49:42.588Z,5.38
2022-10-19T15:52:23.570Z,5.13
2022-10-19T15:54:55.479Z,5.15
2022-10-19T15:57:33.375Z,5.03
2022-10-19T16:00:08.865Z,4.97
2022-10-19T16:02:35.454Z,5.03
2022-10-19T16:05:01.918Z,5.03
2022-10-19T16:07:32.531Z,4.78
2022-10-19T16:09:59.488Z,5.38
2022-10-19T16:12:26.819Z,5.43
2022-10-19T16:14:54.141Z,5.22
2022-10-19T16:17:20.669Z,5.05
2022-10-19T16:19:47.227Z,5.10
2022-10-19T16:22:14.487Z,5.47
2022-10-19T16:24:41.513Z,5.38
2022-10-19T16:27:08.809Z,5.32
2022-10-19T16:29:35.357Z,5.20
2022-10-19T16:32:01.728Z,4.32
2022-10-19T16:34:28.293Z,5.78
2022-10-19T16:36:54.703Z,5.45
2022-10-19T16:39:21.164Z,5.57
2022-10-19T16:41:47.538Z,5.05
2022-10-19T16:44:13.907Z,5.65
2022-10-19T16:46:40.218Z,4.95
2022-10-19T16:49:06.580Z,5.90
2022-10-19T16:51:37.705Z,6.07
2022-10-19T16:54:06.343Z,5.53
2022-10-19T16:56:34.234Z,6.32
2022-10-19T16:59:03.863Z,6.43
2022-10-19T17:01:31.300Z,5.68
2022-10-19T17:03:58.662Z,5.65
2022-10-19T17:06:26.462Z,6.35
2022-10-19T17:09:29.838Z,6.13
2022-10-19T17:11:40.181Z,7.03
2022-10-19T17:14:10.857Z,5.85
2022-10-19T17:16:38.210Z,5.97
2022-10-19T17:21:57.612Z,5.72
2022-10-19T17:24:23.980Z,6.20
2022-10-19T17:26:52.074Z,6.22
2022-10-19T17:29:19.595Z,5.57
2022-10-19T17:31:46.370Z,6.70
2022-10-19T17:34:12.977Z,5.97
2022-10-19T17:36:41.874Z,6.50
2022-10-19T17:39:11.682Z,13.40
2022-10-19T17:41:38.070Z,7.35
2022-10-19T17:44:05.055Z,8.82
2022-10-19T17:46:33.362Z,6.50
2022-10-19T17:49:00.116Z,6.15
2022-10-19T17:51:29.149Z,6.70
2022-10-19T17:56:23.947Z,7.07
2022-10-19T17:58:50.794Z,7.07
2022-10-19T18:01:19.777Z,6.75
2022-10-19T18:03:46.892Z,6.97
2022-10-19T18:06:27.264Z,7.15
2022-10-19T18:08:56.237Z,6.82
2022-10-19T18:11:26.233Z,6.47
2022-10-19T18:13:55.355Z,7.78
2022-10-19T18:18:51.968Z,8.05
2022-10-19T18:21:23.338Z,7.65
2022-10-19T18:23:53.708Z,8.20
2022-10-19T18:26:24.972Z,8.55
2022-10-19T18:28:52.845Z,7.90
2022-10-19T18:31:25.088Z,7.72
2022-10-19T18:33:57.569Z,7.90
2022-10-19T18:36:24.260Z,8.73
2022-10-19T18:38:52.345Z,9.43
2022-10-19T18:41:19.377Z,9.73
2022-10-19T18:43:54.609Z,8.77
2022-10-19T18:46:22.763Z,9.25
2022-10-19T18:48:49.840Z,8.82
2022-10-19T18:51:18.048Z,9.73
2022-10-19T18:53:45.202Z,10.10
2022-10-19T18:56:13.523Z,8.40
2022-10-19T18:58:40.191Z,8.15
2022-10-19T19:01:09.402Z,8.57
2022-10-19T19:03:37.479Z,9.60
2022-10-19T19:06:07.083Z,8.27
2022-10-19T19:08:33.724Z,8.63
2022-10-19T19:11:16.270Z,7.70
2022-10-19T19:13:51.003Z,9.65
2022-10-19T19:16:17.707Z,9.48
2022-10-19T19:18:44.437Z,7.75
2022-10-19T19:21:22.744Z,8.25
2022-10-19T19:23:50.773Z,7.85
2022-10-19T19:26:17.854Z,7.55
2022-10-19T19:28:46.404Z,6.70
2022-10-19T19:31:15.973Z,7.20
2022-10-19T19:33:43.563Z,9.18
2022-10-19T19:36:13.555Z,8.05
2022-10-19T19:38:40.222Z,7.88
2022-10-19T19:41:09.955Z,7.18
2022-10-19T19:43:38.030Z,8.35
2022-10-19T19:46:13.664Z,7.82
2022-10-19T19:51:13.299Z,6.72
2022-10-19T19:53:40.375Z,6.80
2022-10-19T19:56:09.421Z,7.20
2022-10-19T19:58:36.137Z,7.90
2022-10-19T20:01:14.410Z,9.13
2022-10-19T20:03:42.584Z,10.18
2022-10-19T20:06:09.836Z,7.47
2022-10-19T20:08:36.878Z,7.80
2022-10-19T20:11:06.404Z,7.43
2022-10-19T20:13:33.000Z,8.18
2022-10-19T20:16:06.298Z,7.43
2022-10-19T20:18:32.758Z,8.00
2022-10-19T20:21:03.616Z,8.13
2022-10-19T20:23:30.843Z,7.32
2022-10-19T20:25:57.386Z,7.38
2022-10-19T20:28:25.701Z,7.85
2022-10-19T20:31:07.812Z,10.25
2022-10-19T20:36:06.668Z,8.52
2022-10-19T20:38:34.448Z,8.35
2022-10-19T20:41:12.959Z,8.95
2022-10-19T20:43:39.382Z,6.90
2022-10-19T20:46:08.423Z,8.52
2022-10-19T20:48:37.715Z,10.05
2022-10-19T20:53:35.403Z,8.02
2022-10-19T20:56:10.819Z,8.05
2022-10-19T20:58:43.253Z,7.30
2022-10-19T21:01:13.100Z,7.40
2022-10-19T21:03:40.518Z,7.80
2022-10-19T21:06:10.502Z,7.47
2022-10-19T21:08:40.019Z,8.95
2022-10-19T21:11:19.204Z,8.68
2022-10-19T21:13:46.394Z,9.48
2022-10-19T21:16:18.510Z,8.10
2022-10-19T21:18:46.926Z,8.32
2022-10-19T21:21:18.227Z,8.13
2022-10-19T21:23:46.705Z,7.82
2022-10-19T21:26:13.913Z,8.18
2022-10-19T21:28:45.201Z,7.97
2022-10-19T21:31:11.688Z,7.40
2022-10-19T21:33:38.127Z,6.93
2022-10-19T21:36:06.577Z,7.63
2022-10-19T21:38:34.003Z,8.13
2022-10-19T21:41:02.988Z,8.35
2022-10-19T21:43:30.197Z,9.50
2022-10-19T21:45:58.826Z,8.73
2022-10-19T21:48:25.144Z,9.48
2022-10-19T21:50:51.586Z,10.05
2022-10-19T21:53:20.177Z,9.93
2022-10-19T21:55:47.152Z,8.65
2022-10-19T21:58:13.759Z,8.30
2022-10-19T22:00:40.305Z,8.52
2022-10-19T22:03:06.711Z,7.40
2022-10-19T22:05:33.316Z,7.75
2022-10-19T22:07:59.664Z,8.45
2022-10-19T22:10:26.116Z,7.68
2022-10-19T22:12:52.598Z,7.72
2022-10-19T22:15:18.928Z,7.22
2022-10-19T22:17:45.327Z,6.50
2022-10-19T22:20:11.749Z,7.38
2022-10-19T22:22:38.212Z,8.25
2022-10-19T22:25:05.135Z,6.25
2022-10-19T22:27:31.549Z,7.57
2022-10-19T22:29:57.944Z,6.55
2022-10-19T22:32:24.323Z,6.53
2022-10-19T22:34:50.663Z,7.00
2022-10-19T22:37:17.060Z,8.02
2022-10-19T22:39:43.410Z,6.40
2022-10-19T22:42:09.911Z,7.32
2022-10-19T22:44:36.364Z,6.70
2022-10-19T22:47:02.702Z,4.85
2022-10-19T22:49:29.032Z,6.47
2022-10-19T22:51:55.350Z,6.43
2022-10-19T22:54:21.816Z,6.57
2022-10-19T22:56:48.145Z,7.10
2022-10-19T22:59:14.642Z,6.05
2022-10-19T23:01:41.027Z,6.55
2022-10-19T23:04:07.390Z,8.02
2022-10-19T23:06:33.775Z,7.70
2022-10-19T23:09:00.229Z,7.35
2022-10-19T23:11:26.662Z,9.23
2022-10-19T23:13:53.035Z,8.38
2022-10-19T23:16:19.429Z,8.38
2022-10-19T23:18:48.188Z,8.15
2022-10-19T23:21:15.197Z,8.45
2022-10-19T23:23:42.171Z,8.30
2022-10-19T23:26:12.171Z,7.75
2022-10-19T23:28:40.004Z,8.15
2022-10-19T23:31:26.626Z,5.75
2022-10-19T23:33:53.606Z,5.75
2022-10-19T23:36:22.984Z,5.43
2022-10-19T23:38:51.217Z,6.45
2022-10-19T23:41:18.374Z,6.18
2022-10-19T23:43:45.379Z,6.88
2022-10-19T23:46:12.397Z,7.70
2022-10-19T23:48:39.242Z,7.07
2022-10-19T23:51:08.342Z,7.07
2022-10-19T23:53:39.939Z,6.88
2022-10-19T23:56:09.569Z,7.70
2022-10-19T23:58:35.992Z,7.82
